Meteo Giornale » Osservazioni meteo Italia » Bologna-Borgo Panigale

ore: 09:50 - Osservazioni Meteo Bologna-Borgo Panigale
Lat. 44° 32' N Lon. 11° 18' E Alt. 36 metri s.l.m.

sereno Europe/Rome

4 °C

Sereno

Temp. 24 Ore

-1 °C

12 °C

Nord

0 Km/h

Dew point 0 °C

Umidità 75 %

Visibilità  10 Km

Il sole sorge alle ore 07:43

Il sole tramonta alle ore 17:07

Data e Ora Cielo e Fenomeni T °C DP °C Um. % Pres. hPa Vis. km Vento km/h
Oggi h: 09:50 sereno Sereno 4 0 75 1008 10 N 0
Oggi h: 09:20 sereno Sereno 2 -0 86 1008 10 N 1.8
Oggi h: 08:50 sereno Sereno 1 -2 80 1008 10 N 3.7
Oggi h: 08:20 sereno Sereno -0 -2 86 1008 10 N/NO 7.4
Oggi h: 07:50 sereno Sereno -0 -2 86 1008 10 N 3.7
Oggi h: 07:20 sereno Sereno -0 -2 86 1008 10 N 3.7
Oggi h: 06:50 sereno Sereno -1 -2 92 1008 10 N 3.7
Oggi h: 06:20 sereno Sereno -1 -2 92 1008 10 N 3.7
Oggi h: 05:50 sereno Sereno 0 -2 86 1008 10 N 3.7
Oggi h: 05:20 sereno Sereno -1 -3 86 1008 10 N 3.7
Oggi h: 04:50 sereno Sereno -0 -2 86 1008 10 N 3.7
Oggi h: 04:20 sereno Sereno 0 -2 86 1009 10 N 3.7
Oggi h: 03:50 sereno Sereno 0 -3 80 1009 10 N 5.5
Oggi h: 03:20 sereno Sereno -0 -2 86 1009 10 N 3.7
Oggi h: 02:50 sereno Sereno 0 -2 86 1009 10 N 1.8
Oggi h: 02:20 sereno Sereno 1 -2 80 1009 10 N 0
Oggi h: 01:50 sereno Sereno 1 -2 80 1009 10 N 3.7
Oggi h: 01:20 sereno Sereno 2 -2 74 1010 10 N 5.5
Oggi h: 00:50 sereno Sereno 2 -2 74 1010 10 N 3.7
Oggi h: 00:20 sereno Sereno 2 -2 74 1010 10 N 5.5
Ieri h: 23:50 sereno Sereno 3 -2 69 1010 10 N 3.7
Ieri h: 23:20 sereno Sereno 4 -2 64 1010 10 N 3.7
Ieri h: 22:50 sereno Sereno 4 -2 64 1011 10 N 5.5
Ieri h: 22:20 sereno Sereno 4 -1 69 1011 10 S/SO 9.3
Ieri h: 21:50 sereno Sereno 3 -2 69 1011 10 N 5.5
Ieri h: 21:20 sereno Sereno 4 -2 64 1012 10 N 5.5
Ieri h: 20:50 sereno Sereno 4 -2 64 1012 10 SO 7.4
Ieri h: 20:20 sereno Sereno 5 -2 60 1012 10 N 5.5
Ieri h: 19:50 sereno Sereno 6 -2 56 1012 10 N 3.7
Ieri h: 19:20 sereno Sereno 6 -2 56 1012 10 N 3.7
Ieri h: 18:50 sereno Sereno 6 -3 52 1012 10 N 3.7
Ieri h: 17:50 sereno Sereno 5 -3 56 1011 10 N 3.7
Ieri h: 17:20 sereno Sereno 8 -3 45 1012 10 N 0
Ieri h: 16:50 sereno Sereno 10 -3 39 1012 10 N 5.5
Ieri h: 16:20 sereno Sereno 11 -3 37 1012 10 N 3.7
Ieri h: 15:50 sereno Sereno 11 -3 37 1012 10 N 9.3
Ieri h: 15:20 sereno Sereno 11 -3 37 1013 10 N 5.5
Ieri h: 14:50 sereno Sereno 11 -4 34 1013 10 N 7.4
Ieri h: 14:20 sereno Sereno 12 -4 32 1013 10 N 7.4
Ieri h: 13:50 sereno Sereno 12 -5 30 1013 10 N 5.5
Ieri h: 13:20 sereno Sereno 12 -6 27 1013 10 N 3.7
Ieri h: 12:50 sereno Sereno 11 -7 27 1014 10 N 7.4
Ieri h: 12:20 sereno Sereno 11 -7 27 1014 10 N/NO 7.4
Ieri h: 11:50 sereno Sereno 10 -8 27 1015 10 N 5.5
Ieri h: 11:20 sereno Sereno 9 -6 33 1015 10 N 5.5
Ieri h: 10:50 sereno Sereno 8 -6 36 1016 10 N 7.4
Ieri h: 10:20 sereno Sereno 8 -7 33 1016 10 N 0
Ieri h: 09:50 sereno Sereno 5 -7 41 1016 10 NO 7.4